Thursday, May 25, 2017, 8:24 AM EDT

KOXB, Ocean City Municipal Airport

Location: Berlin, MD, United States Lat: 38.317
Local Time: 8:24 AM EDT (12:24 GMT) Lon: -75.117
Time Zone: US/Eastern Elev: 13 ft

Show me the last for .
Show Decoded

2017-05-25 07:53 METAR KOXB 251153Z AUTO 16005KT 5SM BR OVC003 17/17 A2953 RMK AO2 RAB1058E50
                 SLP999 P0003 60015 70046 T01720167 10172 20139 58019 =
2017-05-25 07:38 METAR KOXB 251138Z AUTO 13006KT 5SM -RA BR OVC003 17/16 A2954 RMK AO2 RAB1058
                 P0002 T01670161 =
2017-05-25 06:53 METAR KOXB 251053Z AUTO 11007KT 8SM OVC004 16/16 A2956 RMK AO2 RAB24E44 SLP010
                 P0000 T01610156 =
2017-05-25 06:38 METAR KOXB 251038Z AUTO 09007KT 8SM -RA OVC004 16/16 A2956 RMK AO2 RAB24 P0000
                 T01560156 =
2017-05-25 06:14 METAR KOXB 251014Z AUTO 11007KT 8SM OVC003 16/15 A2957 RMK AO2 T01560150 =
2017-05-25 05:53 METAR KOXB 250953Z AUTO 10008G17KT 9SM OVC004 15/14 A2956 RMK AO2 RAB30E41
                 SLP008 P0000 T01500144 =
2017-05-25 05:16 METAR KOXB 250916Z AUTO 09009KT 9SM OVC003 15/14 A2957 RMK AO2 T01500144 =
2017-05-25 04:53 METAR KOXB 250853Z AUTO 09008KT 9SM OVC004 15/14 A2958 RMK AO2 RAE07 SLP017
                 P0000 60012 T01500144 56033 =
2017-05-25 03:53 METAR KOXB 250753Z AUTO 09010KT 9SM -RA OVC004 14/14 A2960 RMK AO2 SLP024 P0005
                 T01440139 =
2017-05-25 03:06 METAR KOXB 250706Z AUTO 07011KT 10SM -RA OVC004 14/13 A2963 RMK AO2 P0001
                 T01390133 =
2017-05-25 02:53 METAR KOXB 250653Z AUTO 08010G19KT 10SM -RA OVC005 14/13 A2963 RMK AO2 SLP034
                 P0007 T01390133 =
2017-05-25 01:53 METAR KOXB 250553Z AUTO 08012KT 6SM +RA BR OVC005 14/13 A2968 RMK AO2 SLP051
                 P0010 60031 T01390128 10139 20133 58027 =
2017-05-25 00:53 METAR KOXB 250453Z AUTO 08011KT 4SM RA BR OVC005 13/13 A2971 RMK AO2 RAB12
                 SLP062 P0021 T01330128 401720133 =
2017-05-24 23:53 METAR KOXB 250353Z AUTO 08011G17KT 10SM OVC005 13/12 A2974 RMK AO2 RAB28E51
                 SLP071 P0000 T01330122 =
2017-05-24 22:53 METAR KOXB 250253Z AUTO 09012KT 10SM OVC006 13/12 A2976 RMK AO2 SLP077 T01330122
                 58005 =
2017-05-24 21:53 METAR KOXB 250153Z AUTO 09012KT 10SM OVC008 14/12 A2978 RMK AO2 SLP083 T01390122
                 =
2017-05-24 20:53 METAR KOXB 250053Z AUTO 07013G18KT 10SM OVC008 14/12 A2977 RMK AO2 SLP079
                 T01390122 =
2017-05-24 20:02 METAR KOXB 250002Z AUTO 08011G17KT 10SM OVC009 14/12 A2977 RMK AO2 T01390122 =
2017-05-24 19:53 METAR KOXB 242353Z AUTO 08011KT 10SM OVC010 14/12 A2978 RMK AO2 SLP082 T01390122
                 10172 20139 50008 =
2017-05-24 18:53 METAR KOXB 242253Z AUTO 08010KT 10SM OVC011 14/12 A2979 RMK AO2 SLP088 T01440122
                 =
2017-05-24 17:53 METAR KOXB 242153Z AUTO 07010KT 10SM OVC011 15/12 A2977 RMK AO2 SLP080 T01500122
                 =
2017-05-24 16:53 METAR KOXB 242053Z AUTO 06012KT 10SM OVC014 16/12 A2975 RMK AO2 SLP074 T01560122
                 58004 =
2017-05-24 15:53 METAR KOXB 241953Z AUTO 06012KT 10SM OVC014 16/12 A2977 RMK AO2 SLP080 T01560122
                 =
2017-05-24 15:28 METAR KOXB 241928Z AUTO 05010KT 10SM OVC014 16/12 A2975 RMK AO2 T01610122 =
2017-05-24 15:00 METAR KOXB 241900Z AUTO 06013KT 10SM OVC015 17/13 A2976 RMK AO2 T01670128 =
2017-05-24 14:53 METAR KOXB 241853Z AUTO 05011KT 10SM OVC014 17/13 A2976 RMK AO2 SLP076 T01720128
                 =
2017-05-24 13:53 METAR KOXB 241753Z AUTO 07009KT 10SM OVC013 16/12 A2976 RMK AO2 SLP078 T01560122
                 10161 20144 53009 =
2017-05-24 12:53 METAR KOXB 241653Z AUTO 05011KT 10SM OVC013 16/13 A2975 RMK AO2 SLP073 T01560128
                 =
2017-05-24 11:53 METAR KOXB 241553Z AUTO 06010G18KT 10SM OVC012 15/13 A2974 RMK AO2 SLP069
                 T01500128 =
2017-05-24 10:53 METAR KOXB 241453Z AUTO 05009G16KT 10SM OVC012 15/13 A2973 RMK AO2 SLP069
                 T01500128 53012 =
2017-05-24 10:19 METAR KOXB 241419Z AUTO 05011G15KT 10SM OVC010 15/13 A2972 RMK AO2 T01500133 =
2017-05-24 09:53 METAR KOXB 241353Z AUTO 03009KT 10SM OVC009 15/13 A2972 RMK AO2 CIG 008V012
                 SLP063 T01500133 =
2017-05-24 08:53 METAR KOXB 241253Z AUTO 03008KT 5SM BR OVC008 15/14 A2971 RMK AO2 SLP062
                 T01500139 =

Support USWX by starting your Amazon purchase here.